createdAt,value
2023-01-04T00:02:56.316Z,101533.78
2023-01-04T00:07:04.219Z,101533.08
2023-01-04T00:11:14.003Z,101531.68
2023-01-04T00:15:22.209Z,101532.91
2023-01-04T00:19:29.712Z,101531.48
2023-01-04T00:23:38.073Z,101526.56
2023-01-04T00:27:45.784Z,101526.73
2023-01-04T00:31:54.248Z,101522.36
2023-01-04T00:36:08.764Z,101520.96
2023-01-04T00:40:17.401Z,101514.13
2023-01-04T00:44:24.826Z,101517.98
2023-01-04T00:48:36.504Z,101521.66
2023-01-04T00:52:47.193Z,101516.20
2023-01-04T00:56:55.015Z,101520.39
2023-01-04T01:01:09.371Z,101523.55
2023-01-04T01:05:17.028Z,101524.95
2023-01-04T01:09:25.006Z,101525.82
2023-01-04T01:13:32.628Z,101520.22
2023-01-04T01:17:40.859Z,101516.55
2023-01-04T01:21:48.546Z,101519.52
2023-01-04T01:25:55.887Z,101512.66
2023-01-04T01:30:03.549Z,101506.34
2023-01-04T01:34:11.751Z,101505.98
2023-01-04T01:38:19.342Z,101507.55
2023-01-04T01:42:27.963Z,101497.23
2023-01-04T01:46:40.037Z,101489.53
2023-01-04T01:50:51.414Z,101488.30
2023-01-04T01:55:02.977Z,101485.86
2023-01-04T01:59:12.699Z,101482.18
2023-01-04T02:03:23.094Z,101481.66
2023-01-04T02:07:32.039Z,101471.85
2023-01-04T02:11:39.995Z,101469.56
2023-01-04T02:16:02.596Z,101460.48
2023-01-04T02:20:28.527Z,101459.95
2023-01-04T02:24:50.770Z,101451.89
2023-01-04T02:29:13.648Z,101448.73
2023-01-04T02:33:32.750Z,101444.89
2023-01-04T02:37:45.933Z,101437.33
2023-01-04T02:41:55.920Z,101431.02
2023-01-04T02:46:19.482Z,101425.40
2023-01-04T02:50:38.194Z,101430.11
2023-01-04T02:54:46.689Z,101427.67
2023-01-04T02:59:12.360Z,101423.32
2023-01-04T03:03:50.021Z,101414.39
2023-01-04T03:08:05.718Z,101404.06
2023-01-04T03:12:36.137Z,101400.19
2023-01-04T03:16:46.082Z,101394.06
2023-01-04T03:20:54.423Z,101391.96
2023-01-04T03:25:20.527Z,101388.63
2023-01-04T03:29:53.583Z,101386.36
2023-01-04T03:34:18.711Z,101370.44
2023-01-04T03:38:55.326Z,101354.17
2023-01-04T03:43:25.675Z,101354.00
2023-01-04T03:47:54.366Z,101358.36
2023-01-04T03:52:03.949Z,101344.38
2023-01-04T03:56:13.000Z,101334.58
2023-01-04T04:00:21.949Z,101329.85
2023-01-04T04:04:49.107Z,101322.33
2023-01-04T04:08:56.989Z,101318.65
2023-01-04T04:13:04.273Z,101315.85
2023-01-04T04:17:12.207Z,101316.90
2023-01-04T04:21:19.915Z,101309.90
2023-01-04T04:25:27.465Z,101302.39
2023-01-04T04:29:37.107Z,101298.37
2023-01-04T04:33:44.974Z,101300.99
2023-01-04T04:37:52.733Z,101303.45
2023-01-04T04:42:00.868Z,101295.92
2023-01-04T04:46:08.928Z,101286.64
2023-01-04T04:50:17.948Z,101288.05
2023-01-04T04:54:25.761Z,101283.32
2023-01-04T04:58:33.777Z,101281.75
2023-01-04T05:02:42.205Z,101276.15
2023-01-04T05:06:53.405Z,101266.52
2023-01-04T05:11:08.639Z,101264.61
2023-01-04T05:15:16.657Z,101257.61
2023-01-04T05:19:24.822Z,101242.38
2023-01-04T05:23:32.281Z,101240.29
2023-01-04T05:27:39.789Z,101230.32
2023-01-04T05:31:47.278Z,101227.88
2023-01-04T05:35:56.757Z,101232.25
2023-01-04T05:40:04.304Z,101222.27
2023-01-04T05:44:11.997Z,101226.46
2023-01-04T05:48:22.542Z,101226.83
2023-01-04T05:52:34.135Z,101215.61
2023-01-04T05:56:49.865Z,101222.09
2023-01-04T06:00:57.593Z,101214.55
2023-01-04T06:05:14.566Z,101203.70
2023-01-04T06:09:24.997Z,101197.55
2023-01-04T06:13:32.783Z,101192.27
2023-01-04T06:17:44.518Z,101187.17
2023-01-04T06:21:52.140Z,101180.14
2023-01-04T06:26:03.840Z,101169.77
2023-01-04T06:30:21.411Z,101153.31
2023-01-04T06:34:31.493Z,101142.64
2023-01-04T06:38:44.769Z,101133.14
2023-01-04T06:42:56.741Z,101129.05
2023-01-04T06:47:08.557Z,101121.50
2023-01-04T06:51:23.726Z,101114.45
2023-01-04T06:55:36.059Z,101116.17
2023-01-04T06:59:49.685Z,101116.53
2023-01-04T07:04:01.159Z,101114.60
2023-01-04T07:08:09.031Z,101099.87
2023-01-04T07:12:19.716Z,101091.59
2023-01-04T07:16:27.589Z,101093.81
2023-01-04T07:20:35.471Z,101091.33
2023-01-04T07:24:43.876Z,101085.31
2023-01-04T07:29:11.614Z,101088.63
2023-01-04T07:33:23.302Z,101081.60
2023-01-04T07:37:33.080Z,101068.96
2023-01-04T07:41:44.828Z,101070.33
2023-01-04T07:45:59.385Z,101072.21
2023-01-04T07:50:11.260Z,101070.55
2023-01-04T07:54:19.206Z,101070.30
2023-01-04T07:58:27.621Z,101074.62
2023-01-04T08:02:35.910Z,101063.69
2023-01-04T08:06:46.854Z,101054.49
2023-01-04T08:10:55.024Z,101046.69
2023-01-04T08:15:03.553Z,101040.61
2023-01-04T08:19:14.284Z,101027.32
2023-01-04T08:23:23.499Z,101021.16
2023-01-04T08:27:31.354Z,101012.55
2023-01-04T08:31:39.635Z,101010.81
2023-01-04T08:35:47.365Z,100998.21
2023-01-04T08:39:55.707Z,100991.05
2023-01-04T08:44:06.386Z,100979.09
2023-01-04T08:48:17.146Z,100971.48
2023-01-04T08:52:29.385Z,100966.30
2023-01-04T08:56:37.474Z,100959.25
2023-01-04T09:00:45.473Z,100957.87
2023-01-04T09:04:59.895Z,100943.48
2023-01-04T09:09:08.641Z,100931.02
2023-01-04T09:13:19.182Z,100922.27
2023-01-04T09:17:28.873Z,100907.80
2023-01-04T09:21:36.840Z,100901.39
2023-01-04T09:25:45.075Z,100886.70
2023-01-04T09:29:52.717Z,100878.05
2023-01-04T09:34:14.213Z,100862.77
2023-01-04T09:38:23.413Z,100853.99
2023-01-04T09:42:37.527Z,100854.58
2023-01-04T09:46:48.314Z,100850.61
2023-01-04T09:51:01.407Z,100834.27
2023-01-04T09:55:39.779Z,100828.44
2023-01-04T09:59:45.650Z,100825.98
2023-01-04T10:04:00.678Z,100812.68
2023-01-04T10:08:17.072Z,100798.02
2023-01-04T10:12:39.048Z,100781.81
2023-01-04T10:17:12.648Z,100764.66
2023-01-04T10:21:34.617Z,100750.45
2023-01-04T10:25:51.227Z,100731.63
2023-01-04T10:30:05.798Z,100716.94
2023-01-04T10:34:25.585Z,100706.90
2023-01-04T10:38:39.590Z,100695.52
2023-01-04T10:42:54.815Z,100681.67
2023-01-04T10:47:10.140Z,100671.93
2023-01-04T10:51:22.833Z,100672.26
2023-01-04T10:55:33.079Z,100664.73
2023-01-04T10:59:44.451Z,100664.23
2023-01-04T11:03:54.997Z,100658.58
2023-01-04T11:08:06.930Z,100649.98
2023-01-04T11:12:16.783Z,100626.24
2023-01-04T11:16:25.994Z,100616.98
2023-01-04T11:20:38.224Z,100615.08
2023-01-04T11:25:24.239Z,100599.05
2023-01-04T11:29:30.186Z,100586.89
2023-01-04T11:33:54.193Z,100570.30
2023-01-04T11:38:14.544Z,100562.81
2023-01-04T11:42:24.895Z,100551.23
2023-01-04T11:46:33.277Z,100541.17
2023-01-04T11:50:44.108Z,100528.43
2023-01-04T11:54:52.164Z,100519.16
2023-01-04T11:59:25.513Z,100497.63
2023-01-04T12:03:38.123Z,100479.20
2023-01-04T12:07:46.258Z,100475.81
2023-01-04T12:11:56.259Z,100460.90
2023-01-04T12:16:09.226Z,100442.60
2023-01-04T12:20:20.979Z,100429.98
2023-01-04T12:24:32.002Z,100409.00
2023-01-04T12:28:42.437Z,100393.35
2023-01-04T12:32:50.700Z,100386.86
2023-01-04T12:37:05.335Z,100379.80
2023-01-04T12:41:14.271Z,100373.77
2023-01-04T12:45:25.562Z,100367.23
2023-01-04T12:49:50.934Z,100366.39
2023-01-04T12:54:01.092Z,100376.73
2023-01-04T12:59:24.124Z,100366.71
2023-01-04T13:03:52.144Z,100349.83
2023-01-04T13:08:01.400Z,100348.08
2023-01-04T13:12:15.744Z,100357.31
2023-01-04T13:16:31.182Z,100345.25
2023-01-04T13:20:49.460Z,100316.63
2023-01-04T13:25:04.868Z,100307.56
2023-01-04T13:29:18.320Z,100300.96
2023-01-04T13:33:28.345Z,100291.50
2023-01-04T13:37:42.725Z,100294.29
2023-01-04T13:41:53.468Z,100312.37
2023-01-04T13:46:14.847Z,100309.77
2023-01-04T13:50:31.241Z,100305.77
2023-01-04T13:54:38.779Z,100300.53
2023-01-04T13:58:46.837Z,100299.95
2023-01-04T14:03:18.050Z,100296.89
2023-01-04T14:07:27.705Z,100290.73
2023-01-04T14:12:09.101Z,100276.19
2023-01-04T14:16:18.076Z,100256.52
2023-01-04T14:20:39.273Z,100251.85
2023-01-04T14:29:29.610Z,100269.02
2023-01-04T14:33:43.376Z,100270.75
2023-01-04T14:37:51.405Z,100261.20
2023-01-04T14:42:00.337Z,100252.97
2023-01-04T14:46:09.685Z,100237.81
2023-01-04T14:50:18.603Z,100227.94
2023-01-04T14:54:28.176Z,100216.54
2023-01-04T14:58:35.712Z,100212.59
2023-01-04T15:02:46.431Z,100201.36
2023-01-04T15:06:58.660Z,100180.90
2023-01-04T15:11:06.584Z,100177.78
2023-01-04T15:15:16.188Z,100174.27
2023-01-04T15:19:24.243Z,100169.55
2023-01-04T15:23:32.709Z,100176.52
2023-01-04T15:27:42.732Z,100178.41
2023-01-04T15:31:51.173Z,100177.48
2023-01-04T15:36:04.019Z,100168.35
2023-01-04T15:40:13.709Z,100162.17
2023-01-04T15:44:21.542Z,100162.96
2023-01-04T15:48:29.706Z,100159.27
2023-01-04T15:52:37.976Z,100155.09
2023-01-04T15:56:46.547Z,100150.28
2023-01-04T16:00:59.618Z,100132.27
2023-01-04T16:05:12.546Z,100123.89
2023-01-04T16:09:22.079Z,100120.79
2023-01-04T16:13:29.648Z,100107.34
2023-01-04T16:17:37.769Z,100104.27
2023-01-04T16:21:45.547Z,100100.97
2023-01-04T16:25:53.396Z,100096.98
2023-01-04T16:30:01.165Z,100090.96
2023-01-04T16:34:12.265Z,100092.08
2023-01-04T16:38:20.009Z,100093.45
2023-01-04T16:42:28.027Z,100084.27
2023-01-04T16:46:39.840Z,100079.10
2023-01-04T16:50:47.866Z,100065.89
2023-01-04T16:54:55.585Z,100062.63
2023-01-04T16:59:04.081Z,100053.15
2023-01-04T17:03:11.865Z,100050.34
2023-01-04T17:07:19.974Z,100043.94
2023-01-04T17:16:02.112Z,100030.52
2023-01-04T17:20:12.501Z,100017.21
2023-01-04T17:24:20.677Z,100016.34
2023-01-04T17:28:32.228Z,99999.30
2023-01-04T17:32:39.652Z,99999.39
2023-01-04T17:36:47.473Z,99999.58
2023-01-04T17:40:56.090Z,100007.98
2023-01-04T17:45:03.908Z,100007.33
2023-01-04T17:49:22.547Z,99999.54
2023-01-04T17:53:31.303Z,99990.34
2023-01-04T18:01:51.773Z,99963.40
2023-01-04T18:06:24.273Z,99949.57
2023-01-04T18:10:48.606Z,99950.48
2023-01-04T18:14:58.431Z,99947.66
2023-01-04T18:19:07.477Z,99941.20
2023-01-04T18:23:25.496Z,99934.54
2023-01-04T18:27:34.426Z,99932.94
2023-01-04T18:31:42.644Z,99927.20
2023-01-04T18:35:50.584Z,99920.76
2023-01-04T18:39:58.964Z,99922.16
2023-01-04T18:44:31.416Z,99913.48
2023-01-04T18:48:34.915Z,99919.89
2023-01-04T18:52:42.924Z,99914.66
2023-01-04T18:56:52.247Z,99901.89
2023-01-04T19:01:08.586Z,99904.39
2023-01-04T19:05:19.114Z,99898.03
2023-01-04T19:09:27.410Z,99892.85
2023-01-04T19:13:38.394Z,99887.20
2023-01-04T19:17:46.338Z,99881.39
2023-01-04T19:21:59.417Z,99873.89
2023-01-04T19:26:10.126Z,99866.87
2023-01-04T19:30:18.172Z,99857.09
2023-01-04T19:34:26.567Z,99860.63
2023-01-04T19:38:34.575Z,99857.54
2023-01-04T19:42:44.667Z,99844.67
2023-01-04T19:46:54.232Z,99848.61
2023-01-04T19:51:11.746Z,99846.47
2023-01-04T19:55:20.012Z,99845.69
2023-01-04T19:59:28.616Z,99845.31
2023-01-04T20:03:37.918Z,99843.01
2023-01-04T20:07:49.374Z,99835.30
2023-01-04T20:11:57.648Z,99840.42
2023-01-04T20:16:08.032Z,99830.98
2023-01-04T20:20:18.129Z,99836.84
2023-01-04T20:24:26.137Z,99837.89
2023-01-04T20:28:33.679Z,99836.16
2023-01-04T20:32:41.608Z,99825.30
2023-01-04T20:36:49.617Z,99826.29
2023-01-04T20:41:03.360Z,99813.10
2023-01-04T20:45:12.751Z,99802.16
2023-01-04T20:49:22.461Z,99794.58
2023-01-04T20:53:30.605Z,99793.50
2023-01-04T20:57:39.957Z,99784.42
2023-01-04T21:01:52.080Z,99783.27
2023-01-04T21:06:03.800Z,99794.01
2023-01-04T21:10:12.184Z,99787.85
2023-01-04T21:14:19.914Z,99787.04
2023-01-04T21:18:28.215Z,99784.35
2023-01-04T21:22:36.834Z,99789.30
2023-01-04T21:26:45.341Z,99774.45
2023-01-04T21:30:53.421Z,99773.80
2023-01-04T21:35:02.565Z,99763.70
2023-01-04T21:39:10.842Z,99761.09
2023-01-04T21:43:20.245Z,99759.46
2023-01-04T21:47:29.527Z,99753.40
2023-01-04T21:51:37.575Z,99749.40
2023-01-04T21:55:45.857Z,99745.48
2023-01-04T21:59:53.306Z,99747.31
2023-01-04T22:04:01.109Z,99730.52
2023-01-04T22:08:11.139Z,99720.24
2023-01-04T22:12:19.424Z,99695.18
2023-01-04T22:16:27.226Z,99668.14
2023-01-04T22:20:35.233Z,99667.11
2023-01-04T22:24:43.110Z,99682.88
2023-01-04T22:28:50.906Z,99679.46
2023-01-04T22:32:58.975Z,99676.48
2023-01-04T22:37:06.721Z,99664.13
2023-01-04T22:41:17.441Z,99665.39
2023-01-04T22:45:28.245Z,99654.55
2023-01-04T22:49:37.595Z,99646.41
2023-01-04T22:53:45.699Z,99642.92
2023-01-04T22:57:53.278Z,99638.85
2023-01-04T23:02:01.365Z,99636.08
2023-01-04T23:06:11.215Z,99639.07
2023-01-04T23:10:18.956Z,99627.91
2023-01-04T23:14:26.817Z,99622.46
2023-01-04T23:18:34.786Z,99615.62
2023-01-04T23:22:42.590Z,99624.48
2023-01-04T23:26:50.666Z,99615.61
2023-01-04T23:30:59.054Z,99606.16
2023-01-04T23:35:08.105Z,99597.30
2023-01-04T23:39:19.913Z,99587.09
2023-01-04T23:43:27.391Z,99585.27
2023-01-04T23:47:35.464Z,99581.88
2023-01-04T23:51:43.954Z,99576.45
2023-01-04T23:56:00.030Z,99573.92
